createdAt,value
2023-04-22T00:02:17.131Z,99185.22
2023-04-22T00:04:47.543Z,99186.53
2023-04-22T00:07:15.789Z,99172.75
2023-04-22T00:09:42.984Z,99178.47
2023-04-22T00:12:11.680Z,99177.94
2023-04-22T00:14:38.862Z,99172.22
2023-04-22T00:17:07.344Z,99171.97
2023-04-22T00:19:34.683Z,99171.44
2023-04-22T00:22:01.736Z,99170.38
2023-04-22T00:24:29.279Z,99162.59
2023-04-22T00:26:55.930Z,99163.38
2023-04-22T00:29:22.655Z,99156.34
2023-04-22T00:31:49.444Z,99159.97
2023-04-22T00:34:18.008Z,99160.25
2023-04-22T00:36:45.234Z,99154.78
2023-04-22T00:39:12.556Z,99161.81
2023-04-22T00:41:39.978Z,99159.19
2023-04-22T00:44:11.223Z,99149.06
2023-04-22T00:46:39.129Z,99146.97
2023-04-22T00:49:06.767Z,99149.06
2023-04-22T00:51:33.743Z,99142.56
2023-04-22T00:54:01.932Z,99146.19
2023-04-22T00:56:31.651Z,99139.97
2023-04-22T00:58:58.953Z,99141.00
2023-04-22T01:01:26.558Z,99136.59
2023-04-22T01:03:53.875Z,99143.34
2023-04-22T01:06:22.246Z,99148.53
2023-04-22T01:08:49.005Z,99145.69
2023-04-22T01:11:15.829Z,99147.25
2023-04-22T01:13:42.532Z,99149.59
2023-04-22T01:16:10.168Z,99149.84
2023-04-22T01:18:37.018Z,99145.69
2023-04-22T01:21:03.873Z,99145.41
2023-04-22T01:23:30.676Z,99143.06
2023-04-22T01:25:57.515Z,99137.63
2023-04-22T01:28:24.527Z,99138.66
2023-04-22T01:30:51.590Z,99131.63
2023-04-22T01:33:18.685Z,99139.19
2023-04-22T01:35:45.408Z,99137.88
2023-04-22T01:38:13.183Z,99126.69
2023-04-22T01:40:39.994Z,99130.09
2023-04-22T01:43:07.196Z,99136.06
2023-04-22T01:45:34.032Z,99137.88
2023-04-22T01:48:00.946Z,99132.69
2023-04-22T01:50:27.817Z,99128.25
2023-04-22T01:52:54.562Z,99132.41
2023-04-22T01:55:22.291Z,99120.19
2023-04-22T01:57:48.877Z,99128.25
2023-04-22T02:00:16.042Z,99118.38
2023-04-22T02:02:46.613Z,99119.41
2023-04-22T02:05:13.431Z,99123.31
2023-04-22T02:07:40.257Z,99121.22
2023-04-22T02:10:07.768Z,99114.72
2023-04-22T02:12:34.472Z,99113.44
2023-04-22T02:15:01.115Z,99111.63
2023-04-22T02:17:27.857Z,99118.91
2023-04-22T02:19:54.772Z,99108.75
2023-04-22T02:22:23.873Z,99111.34
2023-04-22T02:24:51.110Z,99106.69
2023-04-22T02:27:17.696Z,99103.03
2023-04-22T02:29:45.028Z,99100.19
2023-04-22T02:32:12.086Z,99103.03
2023-04-22T02:34:38.674Z,99099.63
2023-04-22T02:37:05.568Z,99093.66
2023-04-22T02:39:32.223Z,99098.59
2023-04-22T02:41:58.856Z,99094.94
2023-04-22T02:44:25.914Z,99091.31
2023-04-22T02:46:52.602Z,99094.19
2023-04-22T02:49:19.299Z,99095.22
2023-04-22T02:51:45.988Z,99086.63
2023-04-22T02:54:12.596Z,99094.69
2023-04-22T02:56:39.266Z,99093.91
2023-04-22T02:59:05.889Z,99089.75
2023-04-22T03:01:32.787Z,99091.31
2023-04-22T03:04:02.379Z,99093.91
2023-04-22T03:06:29.104Z,99093.91
2023-04-22T03:08:56.632Z,99088.47
2023-04-22T03:11:23.210Z,99084.56
2023-04-22T03:13:49.777Z,99092.09
2023-04-22T03:16:17.862Z,99085.63
2023-04-22T03:18:45.067Z,99088.72
2023-04-22T03:21:11.737Z,99090.03
2023-04-22T03:23:40.390Z,99089.00
2023-04-22T03:26:07.550Z,99085.34
2023-04-22T03:28:34.278Z,99076.00
2023-04-22T03:31:01.829Z,99080.41
2023-04-22T03:33:29.850Z,99080.16
2023-04-22T03:36:03.263Z,99078.59
2023-04-22T03:38:30.034Z,99073.66
2023-04-22T03:40:56.906Z,99076.78
2023-04-22T03:43:49.859Z,99077.56
2023-04-22T03:46:17.288Z,99077.03
2023-04-22T03:48:51.173Z,99078.59
2023-04-22T03:51:25.879Z,99078.88
2023-04-22T03:53:53.634Z,99072.63
2023-04-22T03:56:24.415Z,99076.25
2023-04-22T03:58:52.250Z,99073.94
2023-04-22T04:01:19.121Z,99072.63
2023-04-22T04:03:50.296Z,99074.97
2023-04-22T04:06:17.997Z,99077.31
2023-04-22T04:08:44.600Z,99071.84
2023-04-22T04:11:11.799Z,99079.38
2023-04-22T04:13:38.566Z,99075.50
2023-04-22T04:16:25.727Z,99079.91
2023-04-22T04:18:59.209Z,99075.22
2023-04-22T04:21:26.875Z,99073.66
2023-04-22T04:23:55.867Z,99075.47
2023-04-22T04:26:29.321Z,99071.06
2023-04-22T04:29:05.674Z,99067.69
2023-04-22T04:31:32.773Z,99077.31
2023-04-22T04:34:00.325Z,99066.66
2023-04-22T04:36:29.218Z,99071.59
2023-04-22T04:39:02.319Z,99075.47
2023-04-22T04:41:29.568Z,99076.25
2023-04-22T04:43:56.540Z,99081.47
2023-04-22T04:46:29.640Z,99078.59
2023-04-22T04:48:57.496Z,99077.28
2023-04-22T04:51:26.548Z,99085.59
2023-04-22T04:53:56.867Z,99077.00
2023-04-22T04:56:25.868Z,99080.38
2023-04-22T04:58:52.558Z,99079.06
2023-04-22T05:01:23.228Z,99072.78
2023-04-22T05:03:51.116Z,99075.88
2023-04-22T05:06:19.692Z,99069.31
2023-04-22T05:08:50.212Z,99082.25
2023-04-22T05:11:16.818Z,99077.25
2023-04-22T05:13:46.528Z,99081.56
2023-04-22T05:16:19.038Z,99074.19
2023-04-22T05:18:46.061Z,99078.47
2023-04-22T05:21:15.997Z,99082.44
2023-04-22T05:23:43.755Z,99079.22
2023-04-22T05:26:10.422Z,99082.00
2023-04-22T05:28:40.375Z,99075.38
2023-04-22T05:31:07.086Z,99081.03
2023-04-22T05:33:33.958Z,99083.59
2023-04-22T05:36:00.755Z,99090.84
2023-04-22T05:38:28.173Z,99084.97
2023-04-22T05:40:56.090Z,99085.63
2023-04-22T05:43:23.776Z,99084.72
2023-04-22T05:45:59.931Z,99087.16
2023-04-22T05:48:26.563Z,99085.47
2023-04-22T05:50:59.746Z,99082.38
2023-04-22T05:53:28.896Z,99081.47
2023-04-22T05:55:56.460Z,99086.81
2023-04-22T05:58:23.867Z,99091.81
2023-04-22T06:00:53.609Z,99092.06
2023-04-22T06:03:46.535Z,99078.34
2023-04-22T06:06:13.416Z,99074.69
2023-04-22T06:08:39.983Z,99087.91
2023-04-22T06:11:06.660Z,99088.59
2023-04-22T06:13:35.454Z,99084.84
2023-04-22T06:16:02.133Z,99089.03
2023-04-22T06:18:29.221Z,99091.44
2023-04-22T06:20:56.138Z,99094.72
2023-04-22T06:23:23.043Z,99102.03
2023-04-22T06:25:49.706Z,99093.88
2023-04-22T06:28:17.117Z,99098.53
2023-04-22T06:30:44.817Z,99097.97
2023-04-22T06:33:11.679Z,99099.41
2023-04-22T06:35:38.388Z,99101.53
2023-04-22T06:38:05.517Z,99095.19
2023-04-22T06:40:39.972Z,99087.69
2023-04-22T06:43:18.717Z,99093.13
2023-04-22T06:46:04.228Z,99090.38
2023-04-22T06:48:39.916Z,99090.25
2023-04-22T06:51:16.161Z,99092.47
2023-04-22T06:53:42.787Z,99094.47
2023-04-22T06:56:12.070Z,99100.75
2023-04-22T06:58:38.647Z,99100.78
2023-04-22T07:01:05.278Z,99104.06
2023-04-22T07:03:32.114Z,99106.03
2023-04-22T07:06:05.388Z,99100.34
2023-04-22T07:08:33.285Z,99106.75
2023-04-22T07:10:59.928Z,99104.31
2023-04-22T07:13:55.720Z,99102.94
2023-04-22T07:16:22.599Z,99095.56
2023-04-22T07:18:49.209Z,99100.22
2023-04-22T07:21:15.761Z,99088.69
2023-04-22T07:23:42.347Z,99095.03
2023-04-22T07:26:09.073Z,99089.97
2023-04-22T07:28:35.690Z,99088.91
2023-04-22T07:31:03.031Z,99091.09
2023-04-22T07:33:29.592Z,99088.47
2023-04-22T07:35:56.419Z,99084.78
2023-04-22T07:38:23.025Z,99095.91
2023-04-22T07:40:49.605Z,99080.59
2023-04-22T07:43:17.758Z,99083.09
2023-04-22T07:45:45.627Z,99091.00
2023-04-22T07:48:13.716Z,99087.44
2023-04-22T07:50:41.452Z,99075.06
2023-04-22T07:53:10.654Z,99081.72
2023-04-22T07:55:38.741Z,99078.75
2023-04-22T07:58:06.710Z,99087.09
2023-04-22T08:00:35.073Z,99076.53
2023-04-22T08:03:02.598Z,99082.53
2023-04-22T08:05:29.399Z,99068.75
2023-04-22T08:07:55.998Z,99076.94
2023-04-22T08:10:22.743Z,99071.00
2023-04-22T08:12:49.539Z,99072.19
2023-04-22T08:15:16.168Z,99068.91
2023-04-22T08:17:43.239Z,99070.72
2023-04-22T08:20:10.419Z,99073.53
2023-04-22T08:22:38.845Z,99074.84
2023-04-22T08:25:06.673Z,99079.00
2023-04-22T08:27:33.321Z,99080.69
2023-04-22T08:29:59.922Z,99079.81
2023-04-22T08:32:26.846Z,99075.38
2023-04-22T08:34:54.358Z,99069.06
2023-04-22T08:37:25.920Z,99067.88
2023-04-22T08:39:53.923Z,99078.81
2023-04-22T08:42:21.401Z,99065.97
2023-04-22T08:44:48.919Z,99061.88
2023-04-22T08:47:16.714Z,99066.00
2023-04-22T08:49:43.995Z,99066.47
2023-04-22T08:52:12.781Z,99072.00
2023-04-22T08:54:39.388Z,99067.16
2023-04-22T08:57:07.417Z,99066.28
2023-04-22T08:59:36.150Z,99054.69
2023-04-22T09:02:04.692Z,99063.44
2023-04-22T09:04:31.957Z,99048.91
2023-04-22T09:07:01.655Z,99063.44
2023-04-22T09:09:30.787Z,99057.28
2023-04-22T09:11:58.346Z,99059.09
2023-04-22T09:14:26.685Z,99062.97
2023-04-22T09:16:53.442Z,99050.28
2023-04-22T09:19:23.840Z,99043.47
2023-04-22T09:21:52.817Z,99045.09
2023-04-22T09:24:21.012Z,99046.44
2023-04-22T09:26:47.978Z,99043.34
2023-04-22T09:29:15.835Z,99050.72
2023-04-22T09:31:43.176Z,99042.84
2023-04-22T09:34:09.883Z,99030.81
2023-04-22T09:36:40.643Z,99027.00
2023-04-22T09:39:08.235Z,99022.97
2023-04-22T09:41:38.619Z,99033.25
2023-04-22T09:44:10.077Z,99016.59
2023-04-22T09:46:36.818Z,99015.38
2023-04-22T09:49:03.474Z,99019.63
2023-04-22T09:51:30.718Z,99018.09
2023-04-22T09:53:59.411Z,99010.41
2023-04-22T09:56:50.894Z,99012.19
2023-04-22T09:59:28.673Z,99010.03
2023-04-22T10:02:00.745Z,99003.72
2023-04-22T10:04:28.385Z,99023.22
2023-04-22T10:06:55.611Z,99020.13
2023-04-22T10:09:22.959Z,99003.97
2023-04-22T10:11:55.219Z,98996.19
2023-04-22T10:14:22.727Z,98995.81
2023-04-22T10:16:52.076Z,98988.25
2023-04-22T10:19:22.395Z,98990.25
2023-04-22T10:21:49.726Z,98996.81
2023-04-22T10:24:18.120Z,98987.41
2023-04-22T10:26:50.857Z,98984.84
2023-04-22T10:29:20.229Z,98990.81
2023-04-22T10:31:58.284Z,98991.75
2023-04-22T10:34:25.505Z,98979.13
2023-04-22T10:36:56.826Z,98983.81
2023-04-22T10:39:24.511Z,98984.34
2023-04-22T10:41:52.958Z,98976.25
2023-04-22T10:44:21.684Z,98982.09
2023-04-22T10:46:52.166Z,98987.59
2023-04-22T10:49:24.636Z,98981.00
2023-04-22T10:51:52.416Z,98984.88
2023-04-22T10:54:30.630Z,98980.00
2023-04-22T10:57:09.622Z,98976.75
2023-04-22T10:59:49.493Z,98971.84
2023-04-22T11:02:18.209Z,98976.75
2023-04-22T11:04:45.643Z,98961.47
2023-04-22T11:07:22.988Z,98970.44
2023-04-22T11:09:52.327Z,98965.97
2023-04-22T11:12:40.020Z,98959.47
2023-04-22T11:15:12.816Z,98959.13
2023-04-22T11:17:42.513Z,98967.00
2023-04-22T11:20:10.477Z,98967.72
2023-04-22T11:22:38.867Z,98964.50
2023-04-22T11:25:06.326Z,98961.47
2023-04-22T11:27:33.027Z,98965.22
2023-04-22T11:30:08.341Z,98967.31
2023-04-22T11:32:36.181Z,98953.63
2023-04-22T11:35:08.391Z,98962.56
2023-04-22T11:37:47.266Z,98962.56
2023-04-22T11:40:30.191Z,98957.75
2023-04-22T11:42:59.570Z,98962.22
2023-04-22T11:45:27.129Z,98949.94
2023-04-22T11:47:54.192Z,98953.75
2023-04-22T11:50:23.392Z,98953.44
2023-04-22T11:53:01.458Z,98940.22
2023-04-22T11:55:33.987Z,98944.34
2023-04-22T11:58:11.808Z,98943.03
2023-04-22T12:00:41.050Z,98932.66
2023-04-22T12:03:08.580Z,98924.56
2023-04-22T12:05:39.071Z,98946.28
2023-04-22T12:08:17.812Z,98928.63
2023-04-22T12:10:47.458Z,98931.28
2023-04-22T12:13:32.943Z,98937.38
2023-04-22T12:16:01.599Z,98921.44
2023-04-22T12:18:42.343Z,98932.00
2023-04-22T12:21:13.607Z,98914.63
2023-04-22T12:23:51.254Z,98916.94
2023-04-22T12:26:19.184Z,98917.63
2023-04-22T12:28:46.880Z,98916.53
2023-04-22T12:31:14.971Z,98909.59
2023-04-22T12:33:42.358Z,98917.63
2023-04-22T12:36:09.792Z,98921.13
2023-04-22T12:38:37.372Z,98907.88
2023-04-22T12:41:05.815Z,98911.91
2023-04-22T12:43:36.243Z,98906.06
2023-04-22T12:46:04.055Z,98895.94
2023-04-22T12:48:31.051Z,98898.28
2023-04-22T12:50:58.491Z,98897.28
2023-04-22T12:53:26.980Z,98893.34
2023-04-22T12:55:54.302Z,98891.19
2023-04-22T12:58:20.960Z,98880.50
2023-04-22T13:00:47.644Z,98890.94
2023-04-22T13:03:14.583Z,98883.16
2023-04-22T13:05:41.504Z,98887.31
2023-04-22T13:08:08.411Z,98882.72
2023-04-22T13:10:35.405Z,98876.56
2023-04-22T13:13:17.837Z,98884.22
2023-04-22T13:15:47.615Z,98871.44
2023-04-22T13:18:16.078Z,98877.03
2023-04-22T13:20:42.836Z,98878.81
2023-04-22T13:23:10.521Z,98867.06
2023-04-22T13:25:37.333Z,98869.19
2023-04-22T13:28:04.016Z,98858.28
2023-04-22T13:30:30.734Z,98859.66
2023-04-22T13:32:57.378Z,98869.44
2023-04-22T13:35:24.350Z,98862.72
2023-04-22T13:37:50.947Z,98862.75
2023-04-22T13:40:17.525Z,98855.03
2023-04-22T13:42:44.471Z,98858.25
2023-04-22T13:45:11.286Z,98854.13
2023-04-22T13:47:38.066Z,98846.56
2023-04-22T13:50:06.318Z,98843.94
2023-04-22T13:52:33.880Z,98840.00
2023-04-22T13:55:00.754Z,98840.81
2023-04-22T13:57:27.585Z,98840.13
2023-04-22T13:59:54.156Z,98838.41
2023-04-22T14:02:20.968Z,98840.75
2023-04-22T14:04:47.632Z,98831.91
2023-04-22T14:07:14.344Z,98821.50
2023-04-22T14:09:41.234Z,98823.59
2023-04-22T14:12:08.810Z,98825.31
2023-04-22T14:14:36.746Z,98830.47
2023-04-22T14:17:03.534Z,98821.13
2023-04-22T14:19:31.736Z,98810.72
2023-04-22T14:21:58.369Z,98804.63
2023-04-22T14:24:25.704Z,98802.78
2023-04-22T14:26:52.812Z,98803.88
2023-04-22T14:29:19.653Z,98796.28
2023-04-22T14:31:46.451Z,98798.34
2023-04-22T14:34:13.151Z,98799.00
2023-04-22T14:36:39.752Z,98798.63
2023-04-22T14:39:06.413Z,98796.22
2023-04-22T14:41:33.037Z,98784.16
2023-04-22T14:43:59.772Z,98782.81
2023-04-22T14:46:26.610Z,98782.66
2023-04-22T14:48:53.198Z,98784.00
2023-04-22T14:51:19.879Z,98781.13
2023-04-22T14:53:46.542Z,98771.66
2023-04-22T14:56:13.153Z,98781.63
2023-04-22T14:58:39.798Z,98786.56
2023-04-22T15:01:07.610Z,98780.84
2023-04-22T15:03:35.835Z,98780.44
2023-04-22T15:06:03.065Z,98784.25
2023-04-22T15:08:30.080Z,98769.75
2023-04-22T15:10:56.796Z,98771.66
2023-04-22T15:13:23.456Z,98764.38
2023-04-22T15:15:50.403Z,98768.56
2023-04-22T15:18:17.421Z,98766.59
2023-04-22T15:20:44.064Z,98760.47
2023-04-22T15:23:10.911Z,98752.41
2023-04-22T15:25:37.831Z,98765.50
2023-04-22T15:28:04.494Z,98744.53
2023-04-22T15:30:31.238Z,98750.56
2023-04-22T15:32:57.914Z,98744.06
2023-04-22T15:35:24.626Z,98745.59
2023-04-22T15:37:52.587Z,98733.75
2023-04-22T15:40:19.404Z,98732.84
2023-04-22T15:42:46.067Z,98735.28
2023-04-22T15:45:12.633Z,98732.41
2023-04-22T15:47:41.175Z,98731.94
2023-04-22T15:50:09.788Z,98733.38
2023-04-22T15:52:37.871Z,98732.19
2023-04-22T15:55:06.010Z,98730.03
2023-04-22T15:57:35.258Z,98725.56
2023-04-22T16:00:11.892Z,98717.47
2023-04-22T16:02:43.526Z,98715.19
2023-04-22T16:05:11.737Z,98723.13
2023-04-22T16:07:38.743Z,98715.91
2023-04-22T16:10:05.810Z,98717.22
2023-04-22T16:12:33.999Z,98710.28
2023-04-22T16:15:01.312Z,98709.00
2023-04-22T16:17:28.267Z,98703.59
2023-04-22T16:19:55.336Z,98703.03
2023-04-22T16:22:22.010Z,98696.84
2023-04-22T16:24:48.699Z,98696.44
2023-04-22T16:27:16.845Z,98695.56
2023-04-22T16:29:44.164Z,98691.28
2023-04-22T16:32:11.448Z,98684.69
2023-04-22T16:34:38.385Z,98691.06
2023-04-22T16:37:05.609Z,98680.72
2023-04-22T16:39:32.808Z,98679.44
2023-04-22T16:41:59.669Z,98672.84
2023-04-22T16:44:26.344Z,98668.66
2023-04-22T16:46:52.968Z,98670.13
2023-04-22T16:49:19.742Z,98668.50
2023-04-22T16:51:46.449Z,98670.41
2023-04-22T16:54:13.227Z,98672.63
2023-04-22T16:56:40.292Z,98671.88
2023-04-22T16:59:06.961Z,98667.69
2023-04-22T17:01:33.687Z,98663.09
2023-04-22T17:04:01.104Z,98671.81
2023-04-22T17:06:28.201Z,98661.97
2023-04-22T17:08:54.951Z,98671.81
2023-04-22T17:11:22.035Z,98671.41
2023-04-22T17:13:48.678Z,98673.28
2023-04-22T17:16:15.655Z,98676.94
2023-04-22T17:18:42.631Z,98669.97
2023-04-22T17:21:09.396Z,98676.28
2023-04-22T17:23:36.540Z,98668.53
2023-04-22T17:26:03.170Z,98674.91
2023-04-22T17:28:29.780Z,98676.31
2023-04-22T17:30:56.380Z,98674.69
2023-04-22T17:33:23.115Z,98673.81
2023-04-22T17:35:50.288Z,98671.38
2023-04-22T17:38:16.924Z,98673.50
2023-04-22T17:40:43.979Z,98674.44
2023-04-22T17:43:10.724Z,98682.19
2023-04-22T17:45:37.347Z,98673.25
2023-04-22T17:48:04.116Z,98666.63
2023-04-22T17:50:31.032Z,98675.00
2023-04-22T17:52:58.158Z,98681.53
2023-04-22T17:55:24.855Z,98676.69
2023-04-22T17:57:52.202Z,98682.84
2023-04-22T18:00:18.978Z,98677.50
2023-04-22T18:02:46.207Z,98677.91
2023-04-22T18:05:13.089Z,98679.28
2023-04-22T18:07:39.981Z,98674.06
2023-04-22T18:10:07.298Z,98676.25
2023-04-22T18:12:35.461Z,98687.13
2023-04-22T18:15:02.125Z,98668.25
2023-04-22T18:17:28.792Z,98684.47
2023-04-22T18:20:00.082Z,98681.81
2023-04-22T18:22:33.070Z,98687.22
2023-04-22T18:25:01.818Z,98691.31
2023-04-22T18:27:28.855Z,98690.13
2023-04-22T18:29:55.689Z,98682.66
2023-04-22T18:32:22.492Z,98692.22
2023-04-22T18:34:49.217Z,98695.53
2023-04-22T18:37:16.934Z,98690.56
2023-04-22T18:39:43.637Z,98693.97
2023-04-22T18:42:10.376Z,98694.38
2023-04-22T18:44:37.721Z,98696.41
2023-04-22T18:47:05.033Z,98691.81
2023-04-22T18:49:33.724Z,98697.28
2023-04-22T18:52:01.109Z,98700.91
2023-04-22T18:54:30.686Z,98701.09
2023-04-22T18:56:58.247Z,98705.94
2023-04-22T18:59:24.942Z,98698.56
2023-04-22T19:01:51.842Z,98699.09
2023-04-22T19:04:18.678Z,98710.34
2023-04-22T19:06:45.549Z,98711.06
2023-04-22T19:09:12.396Z,98703.06
2023-04-22T19:11:39.108Z,98708.97
2023-04-22T19:14:05.866Z,98705.44
2023-04-22T19:16:32.683Z,98708.59
2023-04-22T19:18:59.283Z,98704.75
2023-04-22T19:21:27.011Z,98707.69
2023-04-22T19:23:53.648Z,98705.38
2023-04-22T19:26:21.169Z,98696.84
2023-04-22T19:28:48.695Z,98696.00
2023-04-22T19:31:19.191Z,98708.19
2023-04-22T19:33:46.006Z,98696.91
2023-04-22T19:36:12.614Z,98697.03
2023-04-22T19:38:39.206Z,98696.69
2023-04-22T19:41:07.276Z,98699.78
2023-04-22T19:43:34.483Z,98685.50
2023-04-22T19:46:01.125Z,98696.50
2023-04-22T19:48:28.075Z,98690.38
2023-04-22T19:50:55.237Z,98678.44
2023-04-22T19:53:23.060Z,98684.25
2023-04-22T19:55:49.864Z,98677.91
2023-04-22T19:58:16.889Z,98676.28
2023-04-22T20:00:43.991Z,98671.66
2023-04-22T20:03:11.123Z,98680.72
2023-04-22T20:05:38.173Z,98676.44
2023-04-22T20:08:08.004Z,98673.16
2023-04-22T20:10:35.013Z,98669.94
2023-04-22T20:13:03.901Z,98671.25
2023-04-22T20:15:31.068Z,98668.16
2023-04-22T20:17:58.069Z,98663.56
2023-04-22T20:20:25.123Z,98671.44
2023-04-22T20:22:53.610Z,98660.91
2023-04-22T20:25:20.998Z,98662.47
2023-04-22T20:27:48.427Z,98658.84
2023-04-22T20:30:15.331Z,98658.41
2023-04-22T20:32:42.518Z,98658.94
2023-04-22T20:35:14.970Z,98657.28
2023-04-22T20:37:42.700Z,98663.25
2023-04-22T20:40:11.253Z,98663.25
2023-04-22T20:42:37.928Z,98651.44
2023-04-22T20:45:08.516Z,98658.00
2023-04-22T20:47:35.854Z,98653.25
2023-04-22T20:50:02.484Z,98657.28
2023-04-22T20:52:29.095Z,98657.63
2023-04-22T20:54:56.544Z,98653.56
2023-04-22T20:57:23.704Z,98653.25
2023-04-22T20:59:50.619Z,98652.41
2023-04-22T21:02:18.205Z,98646.63
2023-04-22T21:04:45.430Z,98642.88
2023-04-22T21:07:14.107Z,98648.84
2023-04-22T21:09:41.568Z,98646.00
2023-04-22T21:12:10.383Z,98644.03
2023-04-22T21:14:40.947Z,98638.75
2023-04-22T21:17:19.433Z,98639.84
2023-04-22T21:19:49.449Z,98636.97
2023-04-22T21:22:20.067Z,98638.41
2023-04-22T21:24:47.828Z,98639.25
2023-04-22T21:27:15.655Z,98636.16
2023-04-22T21:29:42.468Z,98638.16
2023-04-22T21:32:09.933Z,98636.59
2023-04-22T21:34:37.820Z,98628.72
2023-04-22T21:37:06.463Z,98625.50
2023-04-22T21:39:33.345Z,98632.06
2023-04-22T21:42:02.413Z,98634.44
2023-04-22T21:44:29.235Z,98631.03
2023-04-22T21:46:55.953Z,98634.94
2023-04-22T21:49:23.221Z,98630.19
2023-04-22T21:51:50.024Z,98630.34
2023-04-22T21:54:17.006Z,98629.78
2023-04-22T21:56:43.878Z,98631.06
2023-04-22T21:59:10.719Z,98628.63
2023-04-22T22:01:37.417Z,98628.63
2023-04-22T22:04:04.252Z,98627.53
2023-04-22T22:06:31.551Z,98623.94
2023-04-22T22:08:58.417Z,98620.84
2023-04-22T22:11:30.824Z,98612.97
2023-04-22T22:13:58.402Z,98611.56
2023-04-22T22:16:25.706Z,98623.44
2023-04-22T22:18:52.700Z,98615.34
2023-04-22T22:21:19.615Z,98621.38
2023-04-22T22:23:46.149Z,98610.84
2023-04-22T22:26:13.011Z,98622.91
2023-04-22T22:28:39.925Z,98615.66
2023-04-22T22:31:07.140Z,98614.75
2023-04-22T22:33:33.758Z,98614.19
2023-04-22T22:36:00.500Z,98614.06
2023-04-22T22:38:27.128Z,98615.47
2023-04-22T22:40:53.753Z,98613.47
2023-04-22T22:43:20.676Z,98612.91
2023-04-22T22:45:47.472Z,98617.56
2023-04-22T22:48:14.189Z,98618.09
2023-04-22T22:50:40.895Z,98613.91
2023-04-22T22:53:07.501Z,98624.44
2023-04-22T22:55:34.246Z,98619.03
2023-04-22T22:58:00.878Z,98615.97
2023-04-22T23:00:27.536Z,98618.00
2023-04-22T23:02:54.477Z,98619.34
2023-04-22T23:05:21.625Z,98609.41
2023-04-22T23:07:48.343Z,98613.91
2023-04-22T23:10:15.115Z,98614.09
2023-04-22T23:12:41.732Z,98609.66
2023-04-22T23:15:08.905Z,98609.22
2023-04-22T23:17:36.463Z,98610.94
2023-04-22T23:20:04.399Z,98604.00
2023-04-22T23:22:32.206Z,98603.19
2023-04-22T23:24:59.274Z,98599.78
2023-04-22T23:27:26.188Z,98608.31
2023-04-22T23:29:53.168Z,98604.00
2023-04-22T23:32:19.824Z,98594.88
2023-04-22T23:34:49.186Z,98593.97
2023-04-22T23:37:16.257Z,98591.34
2023-04-22T23:39:43.294Z,98598.59
2023-04-22T23:42:10.442Z,98596.63
2023-04-22T23:44:37.098Z,98590.28
2023-04-22T23:47:04.065Z,98595.22
2023-04-22T23:49:30.849Z,98591.94
2023-04-22T23:51:57.577Z,98589.31
2023-04-22T23:54:24.315Z,98587.13
2023-04-22T23:56:51.452Z,98588.19
2023-04-22T23:59:18.260Z,98589.41
